sensor_id;sensor_type;location;lat;lon;timestamp;pressure;altitude;pressure_sealevel;temperature;humidity
76762;BME280;65705;51.032;13.790;2023-04-03T00:01:29;101401.69;;;4.39;55.79
76762;BME280;65705;51.032;13.790;2023-04-03T00:03:57;101410.63;;;4.49;55.85
76762;BME280;65705;51.032;13.790;2023-04-03T00:06:23;101410.91;;;4.44;55.90
76762;BME280;65705;51.032;13.790;2023-04-03T00:08:50;101403.09;;;4.44;55.74
76762;BME280;65705;51.032;13.790;2023-04-03T00:11:16;101411.00;;;4.43;55.37
76762;BME280;65705;51.032;13.790;2023-04-03T00:13:43;101412.22;;;4.51;55.50
76762;BME280;65705;51.032;13.790;2023-04-03T00:16:09;101422.63;;;4.51;54.88
76762;BME280;65705;51.032;13.790;2023-04-03T00:18:37;101425.31;;;4.50;55.36
76762;BME280;65705;51.032;13.790;2023-04-03T00:21:03;101424.66;;;4.46;55.11
76762;BME280;65705;51.032;13.790;2023-04-03T00:23:29;101430.50;;;4.50;55.83
76762;BME280;65705;51.032;13.790;2023-04-03T00:25:55;101431.41;;;4.49;55.07
76762;BME280;65705;51.032;13.790;2023-04-03T00:28:21;101441.81;;;4.49;55.17
76762;BME280;65705;51.032;13.790;2023-04-03T00:30:51;101440.09;;;4.34;55.14
76762;BME280;65705;51.032;13.790;2023-04-03T00:33:17;101443.47;;;4.20;55.60
76762;BME280;65705;51.032;13.790;2023-04-03T00:35:43;101441.94;;;4.32;55.66
76762;BME280;65705;51.032;13.790;2023-04-03T00:38:09;101448.38;;;4.40;55.86
76762;BME280;65705;51.032;13.790;2023-04-03T00:40:41;101445.16;;;4.51;56.13
76762;BME280;65705;51.032;13.790;2023-04-03T00:43:18;101450.47;;;4.49;54.88
76762;BME280;65705;51.032;13.790;2023-04-03T00:45:45;101440.63;;;4.54;55.00
76762;BME280;65705;51.032;13.790;2023-04-03T00:48:17;101453.63;;;4.54;55.21
76762;BME280;65705;51.032;13.790;2023-04-03T00:50:44;101453.06;;;4.49;54.97
76762;BME280;65705;51.032;13.790;2023-04-03T00:53:13;101444.53;;;4.32;55.15
76762;BME280;65705;51.032;13.790;2023-04-03T00:55:41;101450.91;;;4.26;56.31
76762;BME280;65705;51.032;13.790;2023-04-03T00:58:08;101441.28;;;4.28;55.75
76762;BME280;65705;51.032;13.790;2023-04-03T01:00:37;101448.97;;;4.29;56.18
76762;BME280;65705;51.032;13.790;2023-04-03T01:03:04;101451.16;;;4.37;55.85
76762;BME280;65705;51.032;13.790;2023-04-03T01:05:30;101447.19;;;4.46;55.60
76762;BME280;65705;51.032;13.790;2023-04-03T01:07:58;101460.00;;;4.49;56.14
76762;BME280;65705;51.032;13.790;2023-04-03T01:10:24;101461.09;;;4.45;56.33
76762;BME280;65705;51.032;13.790;2023-04-03T01:12:51;101463.44;;;4.49;56.13
76762;BME280;65705;51.032;13.790;2023-04-03T01:15:21;101466.97;;;4.48;56.26
76762;BME280;65705;51.032;13.790;2023-04-03T01:17:57;101462.25;;;4.55;55.70
76762;BME280;65705;51.032;13.790;2023-04-03T01:25:44;101474.81;;;4.17;56.13
76762;BME280;65705;51.032;13.790;2023-04-03T01:28:14;101476.81;;;4.27;56.35
76762;BME280;65705;51.032;13.790;2023-04-03T01:31:19;101474.22;;;4.27;55.49
76762;BME280;65705;51.032;13.790;2023-04-03T01:33:47;101479.41;;;4.27;55.52
76762;BME280;65705;51.032;13.790;2023-04-03T01:36:20;101484.69;;;4.26;55.55
76762;BME280;65705;51.032;13.790;2023-04-03T01:38:47;101485.78;;;4.22;55.45
76762;BME280;65705;51.032;13.790;2023-04-03T01:41:13;101489.56;;;4.16;55.67
76762;BME280;65705;51.032;13.790;2023-04-03T01:43:39;101488.97;;;4.11;55.81
76762;BME280;65705;51.032;13.790;2023-04-03T01:46:05;101491.47;;;4.13;55.58
76762;BME280;65705;51.032;13.790;2023-04-03T01:48:31;101494.00;;;4.14;55.24
76762;BME280;65705;51.032;13.790;2023-04-03T01:50:57;101500.00;;;3.84;55.74
76762;BME280;65705;51.032;13.790;2023-04-03T01:53:23;101498.06;;;3.87;56.08
76762;BME280;65705;51.032;13.790;2023-04-03T01:55:48;101504.28;;;3.85;56.59
76762;BME280;65705;51.032;13.790;2023-04-03T01:58:15;101505.06;;;3.87;55.99
76762;BME280;65705;51.032;13.790;2023-04-03T02:00:40;101505.53;;;3.78;56.03
76762;BME280;65705;51.032;13.790;2023-04-03T02:03:06;101510.91;;;3.90;55.77
76762;BME280;65705;51.032;13.790;2023-04-03T02:05:32;101514.88;;;3.65;56.31
76762;BME280;65705;51.032;13.790;2023-04-03T02:07:58;101513.84;;;3.52;56.36
76762;BME280;65705;51.032;13.790;2023-04-03T02:10:24;101509.09;;;3.27;56.52
76762;BME280;65705;51.032;13.790;2023-04-03T02:12:50;101511.28;;;3.35;57.38
76762;BME280;65705;51.032;13.790;2023-04-03T02:15:16;101518.53;;;3.28;56.52
76762;BME280;65705;51.032;13.790;2023-04-03T02:17:42;101520.31;;;3.28;56.50
76762;BME280;65705;51.032;13.790;2023-04-03T02:20:08;101521.25;;;3.09;56.99
76762;BME280;65705;51.032;13.790;2023-04-03T02:22:35;101524.34;;;3.16;57.59
76762;BME280;65705;51.032;13.790;2023-04-03T02:25:01;101520.69;;;3.20;57.08
76762;BME280;65705;51.032;13.790;2023-04-03T02:27:27;101521.69;;;3.00;57.10
76762;BME280;65705;51.032;13.790;2023-04-03T02:29:52;101523.97;;;2.89;57.49
76762;BME280;65705;51.032;13.790;2023-04-03T02:32:19;101522.16;;;2.91;57.49
76762;BME280;65705;51.032;13.790;2023-04-03T02:34:45;101519.94;;;3.01;57.25
76762;BME280;65705;51.032;13.790;2023-04-03T02:37:12;101529.88;;;3.10;56.97
76762;BME280;65705;51.032;13.790;2023-04-03T02:39:39;101529.56;;;2.99;57.36
76762;BME280;65705;51.032;13.790;2023-04-03T02:42:05;101530.84;;;3.07;57.27
76762;BME280;65705;51.032;13.790;2023-04-03T02:44:31;101536.72;;;3.11;56.95
76762;BME280;65705;51.032;13.790;2023-04-03T02:46:57;101538.47;;;3.10;56.61
76762;BME280;65705;51.032;13.790;2023-04-03T02:49:23;101538.84;;;3.03;57.02
76762;BME280;65705;51.032;13.790;2023-04-03T02:51:49;101539.94;;;2.99;57.42
76762;BME280;65705;51.032;13.790;2023-04-03T02:54:14;101545.78;;;2.85;57.53
76762;BME280;65705;51.032;13.790;2023-04-03T02:56:44;101542.81;;;2.76;57.85
76762;BME280;65705;51.032;13.790;2023-04-03T02:59:10;101544.56;;;2.75;57.91
76762;BME280;65705;51.032;13.790;2023-04-03T03:01:37;101557.41;;;2.60;58.97
76762;BME280;65705;51.032;13.790;2023-04-03T03:04:03;101546.28;;;2.58;58.98
76762;BME280;65705;51.032;13.790;2023-04-03T03:06:29;101554.06;;;2.58;58.58
76762;BME280;65705;51.032;13.790;2023-04-03T03:08:55;101556.66;;;2.58;59.09
76762;BME280;65705;51.032;13.790;2023-04-03T03:11:20;101563.66;;;2.56;58.92
76762;BME280;65705;51.032;13.790;2023-04-03T03:13:46;101563.50;;;2.59;59.37
76762;BME280;65705;51.032;13.790;2023-04-03T03:16:12;101558.91;;;2.64;58.98
76762;BME280;65705;51.032;13.790;2023-04-03T03:18:38;101566.44;;;2.51;58.97
76762;BME280;65705;51.032;13.790;2023-04-03T03:21:04;101564.94;;;2.47;59.30
76762;BME280;65705;51.032;13.790;2023-04-03T03:23:31;101559.09;;;2.42;59.23
76762;BME280;65705;51.032;13.790;2023-04-03T03:26:03;101559.41;;;2.36;59.45
76762;BME280;65705;51.032;13.790;2023-04-03T03:28:29;101563.09;;;2.12;60.55
76762;BME280;65705;51.032;13.790;2023-04-03T03:30:56;101561.84;;;2.02;60.96
76762;BME280;65705;51.032;13.790;2023-04-03T03:33:23;101565.88;;;1.89;61.09
76762;BME280;65705;51.032;13.790;2023-04-03T03:35:49;101565.41;;;1.81;61.76
76762;BME280;65705;51.032;13.790;2023-04-03T03:38:15;101567.84;;;1.84;61.76
76762;BME280;65705;51.032;13.790;2023-04-03T03:40:41;101565.69;;;1.93;61.04
76762;BME280;65705;51.032;13.790;2023-04-03T03:43:07;101565.75;;;1.92;61.54
76762;BME280;65705;51.032;13.790;2023-04-03T03:45:33;101574.44;;;1.91;61.39
76762;BME280;65705;51.032;13.790;2023-04-03T03:47:59;101576.75;;;1.97;61.43
76762;BME280;65705;51.032;13.790;2023-04-03T03:50:24;101570.91;;;1.92;61.73
76762;BME280;65705;51.032;13.790;2023-04-03T03:52:50;101574.84;;;1.82;61.91
76762;BME280;65705;51.032;13.790;2023-04-03T03:55:17;101576.38;;;1.86;61.25
76762;BME280;65705;51.032;13.790;2023-04-03T03:57:43;101571.88;;;1.71;62.37
76762;BME280;65705;51.032;13.790;2023-04-03T04:00:10;101573.63;;;1.70;62.00
76762;BME280;65705;51.032;13.790;2023-04-03T04:02:50;101576.88;;;1.55;62.77
76762;BME280;65705;51.032;13.790;2023-04-03T04:05:19;101568.97;;;1.58;62.74
76762;BME280;65705;51.032;13.790;2023-04-03T04:07:45;101577.50;;;1.60;62.67
76762;BME280;65705;51.032;13.790;2023-04-03T04:10:11;101579.53;;;1.54;62.71
76762;BME280;65705;51.032;13.790;2023-04-03T04:12:39;101575.53;;;1.47;63.38
76762;BME280;65705;51.032;13.790;2023-04-03T04:15:05;101582.63;;;1.42;63.54
76762;BME280;65705;51.032;13.790;2023-04-03T04:17:31;101590.81;;;1.33;63.86
76762;BME280;65705;51.032;13.790;2023-04-03T04:19:57;101588.84;;;1.38;63.68
76762;BME280;65705;51.032;13.790;2023-04-03T04:22:23;101594.97;;;1.35;63.90
76762;BME280;65705;51.032;13.790;2023-04-03T04:24:49;101592.59;;;1.31;64.01
76762;BME280;65705;51.032;13.790;2023-04-03T04:27:15;101596.69;;;1.36;64.00
76762;BME280;65705;51.032;13.790;2023-04-03T04:29:41;101602.03;;;1.32;63.88
76762;BME280;65705;51.032;13.790;2023-04-03T04:32:08;101601.78;;;1.38;63.86
76762;BME280;65705;51.032;13.790;2023-04-03T04:34:34;101608.06;;;1.32;64.12
76762;BME280;65705;51.032;13.790;2023-04-03T04:37:01;101611.06;;;1.42;64.05
76762;BME280;65705;51.032;13.790;2023-04-03T04:39:27;101614.59;;;1.41;64.15
76762;BME280;65705;51.032;13.790;2023-04-03T04:41:55;101618.91;;;1.40;63.80
76762;BME280;65705;51.032;13.790;2023-04-03T04:44:22;101616.91;;;1.27;64.42
76762;BME280;65705;51.032;13.790;2023-04-03T04:46:48;101612.38;;;1.32;64.59
76762;BME280;65705;51.032;13.790;2023-04-03T04:49:13;101622.91;;;1.27;64.45
76762;BME280;65705;51.032;13.790;2023-04-03T04:51:39;101623.56;;;1.32;64.35
76762;BME280;65705;51.032;13.790;2023-04-03T04:54:05;101625.91;;;1.17;64.76
76762;BME280;65705;51.032;13.790;2023-04-03T04:56:31;101637.41;;;1.09;65.40
76762;BME280;65705;51.032;13.790;2023-04-03T04:58:58;101638.31;;;1.08;65.35
76762;BME280;65705;51.032;13.790;2023-04-03T05:01:25;101644.34;;;0.87;66.15
76762;BME280;65705;51.032;13.790;2023-04-03T05:04:00;101638.13;;;0.91;66.29
76762;BME280;65705;51.032;13.790;2023-04-03T05:06:27;101639.63;;;0.97;66.04
76762;BME280;65705;51.032;13.790;2023-04-03T05:08:54;101644.16;;;0.92;66.66
76762;BME280;65705;51.032;13.790;2023-04-03T05:11:21;101640.53;;;1.18;66.35
76762;BME280;65705;51.032;13.790;2023-04-03T05:13:49;101642.94;;;1.22;65.97
76762;BME280;65705;51.032;13.790;2023-04-03T05:16:16;101646.59;;;1.17;66.08
76762;BME280;65705;51.032;13.790;2023-04-03T05:18:42;101648.16;;;1.21;66.00
76762;BME280;65705;51.032;13.790;2023-04-03T05:21:14;101651.59;;;1.21;66.21
76762;BME280;65705;51.032;13.790;2023-04-03T05:23:40;101652.88;;;1.33;66.09
76762;BME280;65705;51.032;13.790;2023-04-03T05:26:06;101658.41;;;1.44;65.68
76762;BME280;65705;51.032;13.790;2023-04-03T05:28:31;101660.28;;;1.20;66.43
76762;BME280;65705;51.032;13.790;2023-04-03T05:30:58;101650.38;;;1.30;66.03
76762;BME280;65705;51.032;13.790;2023-04-03T05:33:29;101651.53;;;1.23;66.41
76762;BME280;65705;51.032;13.790;2023-04-03T05:36:03;101653.97;;;1.26;66.34
76762;BME280;65705;51.032;13.790;2023-04-03T05:38:30;101655.38;;;1.34;65.86
76762;BME280;65705;51.032;13.790;2023-04-03T05:40:57;101656.91;;;1.38;65.82
76762;BME280;65705;51.032;13.790;2023-04-03T05:43:23;101664.25;;;1.49;65.75
76762;BME280;65705;51.032;13.790;2023-04-03T05:45:50;101663.84;;;1.38;66.00
76762;BME280;65705;51.032;13.790;2023-04-03T05:48:16;101663.06;;;1.36;65.58
76762;BME280;65705;51.032;13.790;2023-04-03T05:50:42;101662.22;;;1.35;66.05
76762;BME280;65705;51.032;13.790;2023-04-03T05:53:17;101657.16;;;1.54;65.92
76762;BME280;65705;51.032;13.790;2023-04-03T05:55:44;101658.25;;;1.68;64.83
76762;BME280;65705;51.032;13.790;2023-04-03T05:58:10;101659.84;;;1.91;63.99
76762;BME280;65705;51.032;13.790;2023-04-03T06:00:35;101663.41;;;1.88;63.61
76762;BME280;65705;51.032;13.790;2023-04-03T06:03:02;101668.16;;;2.17;63.39
76762;BME280;65705;51.032;13.790;2023-04-03T06:05:28;101667.13;;;2.22;62.65
76762;BME280;65705;51.032;13.790;2023-04-03T06:07:54;101662.25;;;2.34;62.21
76762;BME280;65705;51.032;13.790;2023-04-03T06:10:20;101667.22;;;2.57;62.24
76762;BME280;65705;51.032;13.790;2023-04-03T06:12:45;101665.13;;;2.47;61.83
76762;BME280;65705;51.032;13.790;2023-04-03T06:15:11;101666.81;;;2.66;61.59
76762;BME280;65705;51.032;13.790;2023-04-03T06:17:39;101670.31;;;2.65;61.66
76762;BME280;65705;51.032;13.790;2023-04-03T06:20:06;101661.69;;;2.65;60.96
76762;BME280;65705;51.032;13.790;2023-04-03T06:22:33;101671.41;;;2.78;61.16
76762;BME280;65705;51.032;13.790;2023-04-03T06:25:00;101666.88;;;2.65;61.74
76762;BME280;65705;51.032;13.790;2023-04-03T06:27:27;101674.22;;;2.55;61.92
76762;BME280;65705;51.032;13.790;2023-04-03T06:29:53;101675.47;;;2.47;62.03
76762;BME280;65705;51.032;13.790;2023-04-03T06:32:18;101678.50;;;2.56;61.45
76762;BME280;65705;51.032;13.790;2023-04-03T06:34:44;101681.31;;;2.70;61.19
76762;BME280;65705;51.032;13.790;2023-04-03T06:37:15;101681.44;;;2.67;60.94
76762;BME280;65705;51.032;13.790;2023-04-03T06:39:41;101686.91;;;2.61;61.24
76762;BME280;65705;51.032;13.790;2023-04-03T06:42:07;101684.00;;;2.67;60.56
76762;BME280;65705;51.032;13.790;2023-04-03T06:44:44;101693.69;;;2.45;61.10
76762;BME280;65705;51.032;13.790;2023-04-03T06:47:15;101692.50;;;2.52;61.52
76762;BME280;65705;51.032;13.790;2023-04-03T06:49:41;101690.19;;;2.46;61.37
76762;BME280;65705;51.032;13.790;2023-04-03T06:52:07;101694.88;;;2.38;61.54
76762;BME280;65705;51.032;13.790;2023-04-03T06:54:34;101685.91;;;2.45;61.67
76762;BME280;65705;51.032;13.790;2023-04-03T06:57:00;101695.88;;;2.54;61.27
76762;BME280;65705;51.032;13.790;2023-04-03T06:59:26;101690.91;;;2.68;61.13
76762;BME280;65705;51.032;13.790;2023-04-03T07:01:51;101697.06;;;2.66;60.73
76762;BME280;65705;51.032;13.790;2023-04-03T07:04:17;101705.59;;;2.68;61.07
76762;BME280;65705;51.032;13.790;2023-04-03T07:06:46;101704.28;;;2.59;60.99
76762;BME280;65705;51.032;13.790;2023-04-03T07:09:15;101709.13;;;2.67;60.83
76762;BME280;65705;51.032;13.790;2023-04-03T07:11:41;101702.66;;;2.57;60.79
76762;BME280;65705;51.032;13.790;2023-04-03T07:14:07;101704.91;;;2.64;60.42
76762;BME280;65705;51.032;13.790;2023-04-03T07:16:34;101712.75;;;2.81;60.42
76762;BME280;65705;51.032;13.790;2023-04-03T07:19:01;101709.78;;;2.52;60.25
76762;BME280;65705;51.032;13.790;2023-04-03T07:21:27;101715.00;;;2.70;60.38
76762;BME280;65705;51.032;13.790;2023-04-03T07:23:53;101717.19;;;2.79;60.58
76762;BME280;65705;51.032;13.790;2023-04-03T07:26:20;101719.47;;;2.85;60.53
76762;BME280;65705;51.032;13.790;2023-04-03T07:28:49;101726.69;;;2.97;59.87
76762;BME280;65705;51.032;13.790;2023-04-03T07:31:16;101727.44;;;2.99;59.83
76762;BME280;65705;51.032;13.790;2023-04-03T07:33:43;101727.69;;;3.31;59.78
76762;BME280;65705;51.032;13.790;2023-04-03T07:36:15;101734.28;;;3.38;59.08
76762;BME280;65705;51.032;13.790;2023-04-03T07:38:41;101726.75;;;3.14;59.41
76762;BME280;65705;51.032;13.790;2023-04-03T07:41:11;101733.06;;;3.09;59.98
76762;BME280;65705;51.032;13.790;2023-04-03T07:43:38;101730.88;;;3.18;59.37
76762;BME280;65705;51.032;13.790;2023-04-03T07:46:05;101728.78;;;3.08;59.26
76762;BME280;65705;51.032;13.790;2023-04-03T07:48:30;101728.97;;;3.22;59.78
76762;BME280;65705;51.032;13.790;2023-04-03T07:50:59;101733.03;;;3.28;59.24
76762;BME280;65705;51.032;13.790;2023-04-03T07:53:26;101736.91;;;3.19;59.40
76762;BME280;65705;51.032;13.790;2023-04-03T07:55:51;101738.00;;;3.32;59.40
76762;BME280;65705;51.032;13.790;2023-04-03T07:58:20;101739.31;;;3.41;58.66
76762;BME280;65705;51.032;13.790;2023-04-03T08:00:47;101740.38;;;3.37;59.28
76762;BME280;65705;51.032;13.790;2023-04-03T08:03:13;101737.03;;;3.35;58.90
76762;BME280;65705;51.032;13.790;2023-04-03T08:05:43;101751.59;;;3.37;58.19
76762;BME280;65705;51.032;13.790;2023-04-03T08:08:12;101746.34;;;3.39;58.24
76762;BME280;65705;51.032;13.790;2023-04-03T08:10:38;101743.31;;;3.48;58.41
76762;BME280;65705;51.032;13.790;2023-04-03T08:13:05;101740.56;;;3.51;58.47
76762;BME280;65705;51.032;13.790;2023-04-03T08:15:31;101742.72;;;3.60;58.06
76762;BME280;65705;51.032;13.790;2023-04-03T08:17:58;101742.25;;;3.69;58.80
76762;BME280;65705;51.032;13.790;2023-04-03T08:20:24;101734.94;;;3.77;57.47
76762;BME280;65705;51.032;13.790;2023-04-03T08:22:50;101742.50;;;3.81;57.93
76762;BME280;65705;51.032;13.790;2023-04-03T08:25:16;101737.28;;;3.98;57.65
76762;BME280;65705;51.032;13.790;2023-04-03T08:27:43;101740.13;;;4.11;56.95
76762;BME280;65705;51.032;13.790;2023-04-03T08:30:10;101744.41;;;4.12;56.22
76762;BME280;65705;51.032;13.790;2023-04-03T08:32:36;101739.34;;;4.09;56.56
76762;BME280;65705;51.032;13.790;2023-04-03T08:35:03;101743.38;;;4.14;56.34
76762;BME280;65705;51.032;13.790;2023-04-03T08:37:29;101740.56;;;4.02;56.54
76762;BME280;65705;51.032;13.790;2023-04-03T08:39:55;101744.31;;;4.13;56.11
76762;BME280;65705;51.032;13.790;2023-04-03T08:45:13;101739.81;;;4.00;56.43
76762;BME280;65705;51.032;13.790;2023-04-03T08:48:06;101749.06;;;4.05;56.41
76762;BME280;65705;51.032;13.790;2023-04-03T08:50:37;101759.91;;;3.96;56.36
76762;BME280;65705;51.032;13.790;2023-04-03T08:53:06;101747.16;;;3.92;57.05
76762;BME280;65705;51.032;13.790;2023-04-03T08:55:43;101746.38;;;4.07;57.16
76762;BME280;65705;51.032;13.790;2023-04-03T08:58:14;101741.03;;;4.10;56.74
76762;BME280;65705;51.032;13.790;2023-04-03T09:00:46;101744.16;;;4.34;56.40
76762;BME280;65705;51.032;13.790;2023-04-03T09:03:15;101748.91;;;4.58;55.75
76762;BME280;65705;51.032;13.790;2023-04-03T09:06:01;101743.63;;;4.60;55.09
76762;BME280;65705;51.032;13.790;2023-04-03T09:08:42;101748.25;;;4.70;54.77
76762;BME280;65705;51.032;13.790;2023-04-03T09:11:15;101745.34;;;4.76;54.71
76762;BME280;65705;51.032;13.790;2023-04-03T09:14:03;101748.91;;;4.58;54.34
76762;BME280;65705;51.032;13.790;2023-04-03T09:16:49;101753.72;;;4.66;53.95
76762;BME280;65705;51.032;13.790;2023-04-03T09:21:58;101750.19;;;4.82;54.31
76762;BME280;65705;51.032;13.790;2023-04-03T09:24:27;101746.84;;;4.80;54.55
76762;BME280;65705;51.032;13.790;2023-04-03T09:27:01;101744.94;;;4.84;53.72
76762;BME280;65705;51.032;13.790;2023-04-03T09:29:29;101748.59;;;4.64;53.47
76762;BME280;65705;51.032;13.790;2023-04-03T09:32:21;101748.78;;;4.92;53.12
76762;BME280;65705;51.032;13.790;2023-04-03T09:34:48;101744.94;;;4.99;52.84
76762;BME280;65705;51.032;13.790;2023-04-03T09:39:59;101738.22;;;4.95;52.92
76762;BME280;65705;51.032;13.790;2023-04-03T09:42:26;101740.75;;;5.12;52.85
76762;BME280;65705;51.032;13.790;2023-04-03T09:44:59;101737.56;;;5.23;52.59
76762;BME280;65705;51.032;13.790;2023-04-03T09:47:32;101731.75;;;5.33;52.01
76762;BME280;65705;51.032;13.790;2023-04-03T09:50:20;101733.97;;;5.55;51.44
76762;BME280;65705;51.032;13.790;2023-04-03T09:52:49;101732.91;;;5.44;51.18
76762;BME280;65705;51.032;13.790;2023-04-03T09:57:44;101725.00;;;5.45;49.68
76762;BME280;65705;51.032;13.790;2023-04-03T10:00:23;101724.56;;;5.53;49.78
76762;BME280;65705;51.032;13.790;2023-04-03T10:02:55;101720.72;;;5.89;49.42
76762;BME280;65705;51.032;13.790;2023-04-03T10:05:36;101721.00;;;5.69;49.46
76762;BME280;65705;51.032;13.790;2023-04-03T10:10:37;101715.66;;;5.57;48.44
76762;BME280;65705;51.032;13.790;2023-04-03T10:13:05;101711.88;;;5.62;48.22
76762;BME280;65705;51.032;13.790;2023-04-03T10:15:38;101717.03;;;5.48;47.85
76762;BME280;65705;51.032;13.790;2023-04-03T10:21:06;101706.81;;;5.29;48.27
76762;BME280;65705;51.032;13.790;2023-04-03T10:23:44;101716.31;;;5.30;48.03
76762;BME280;65705;51.032;13.790;2023-04-03T10:29:27;101702.44;;;5.30;46.98
76762;BME280;65705;51.032;13.790;2023-04-03T10:35:01;101700.25;;;5.68;45.56
76762;BME280;65705;51.032;13.790;2023-04-03T10:37:29;101691.56;;;5.83;45.82
76762;BME280;65705;51.032;13.790;2023-04-03T10:40:02;101683.72;;;5.98;45.32
76762;BME280;65705;51.032;13.790;2023-04-03T10:46:04;101693.69;;;6.20;45.15
76762;BME280;65705;51.032;13.790;2023-04-03T10:48:52;101678.22;;;6.31;42.88
76762;BME280;65705;51.032;13.790;2023-04-03T10:54:13;101687.16;;;6.13;42.67
76762;BME280;65705;51.032;13.790;2023-04-03T10:57:03;101692.75;;;6.07;43.33
76762;BME280;65705;51.032;13.790;2023-04-03T10:59:39;101680.91;;;6.01;43.71
76762;BME280;65705;51.032;13.790;2023-04-03T11:04:39;101676.44;;;5.74;43.42
76762;BME280;65705;51.032;13.790;2023-04-03T11:07:20;101672.91;;;5.61;42.30
76762;BME280;65705;51.032;13.790;2023-04-03T11:09:50;101670.56;;;5.86;42.58
76762;BME280;65705;51.032;13.790;2023-04-03T11:12:46;101666.22;;;6.00;41.65
76762;BME280;65705;51.032;13.790;2023-04-03T11:15:17;101660.25;;;6.12;41.77
76762;BME280;65705;51.032;13.790;2023-04-03T11:20:20;101646.28;;;6.13;40.93
76762;BME280;65705;51.032;13.790;2023-04-03T11:25:43;101637.81;;;6.10;39.57
76762;BME280;65705;51.032;13.790;2023-04-03T11:28:13;101664.38;;;6.16;39.71
76762;BME280;65705;51.032;13.790;2023-04-03T11:30:58;101667.69;;;5.90;40.54
76762;BME280;65705;51.032;13.790;2023-04-03T11:36:45;101648.69;;;6.02;41.29
76762;BME280;65705;51.032;13.790;2023-04-03T11:41:49;101645.53;;;5.97;42.28
76762;BME280;65705;51.032;13.790;2023-04-03T11:44:28;101650.94;;;6.08;41.64
76762;BME280;65705;51.032;13.790;2023-04-03T11:46:56;101648.53;;;6.05;41.90
76762;BME280;65705;51.032;13.790;2023-04-03T11:50:00;101662.03;;;6.12;40.82
76762;BME280;65705;51.032;13.790;2023-04-03T12:05:50;101644.53;;;6.00;42.24
76762;BME280;65705;51.032;13.790;2023-04-03T12:08:26;101653.75;;;5.91;42.60
76762;BME280;65705;51.032;13.790;2023-04-03T12:21:24;101648.25;;;6.24;42.03
76762;BME280;65705;51.032;13.790;2023-04-03T12:26:51;101641.66;;;6.32;41.43
76762;BME280;65705;51.032;13.790;2023-04-03T12:29:33;101644.91;;;6.36;40.66
76762;BME280;65705;51.032;13.790;2023-04-03T12:48:27;101639.31;;;6.28;40.64
76762;BME280;65705;51.032;13.790;2023-04-03T12:50:56;101641.72;;;6.31;40.48
76762;BME280;65705;51.032;13.790;2023-04-03T12:53:27;101642.22;;;6.23;40.85
76762;BME280;65705;51.032;13.790;2023-04-03T12:56:25;101636.50;;;6.03;41.88
76762;BME280;65705;51.032;13.790;2023-04-03T12:58:53;101639.03;;;6.18;41.58
76762;BME280;65705;51.032;13.790;2023-04-03T13:01:26;101646.84;;;6.18;42.11
76762;BME280;65705;51.032;13.790;2023-04-03T13:03:54;101648.53;;;6.33;41.59
76762;BME280;65705;51.032;13.790;2023-04-03T13:06:33;101641.72;;;6.31;41.49
76762;BME280;65705;51.032;13.790;2023-04-03T13:09:03;101638.38;;;6.29;41.49
76762;BME280;65705;51.032;13.790;2023-04-03T13:11:36;101646.94;;;6.31;41.79
76762;BME280;65705;51.032;13.790;2023-04-03T13:14:05;101639.38;;;6.55;41.74
76762;BME280;65705;51.032;13.790;2023-04-03T13:16:32;101637.59;;;6.55;40.89
76762;BME280;65705;51.032;13.790;2023-04-03T13:18:59;101640.31;;;6.54;41.78
76762;BME280;65705;51.032;13.790;2023-04-03T13:21:31;101642.72;;;6.57;41.41
76762;BME280;65705;51.032;13.790;2023-04-03T13:24:00;101637.78;;;6.66;40.83
76762;BME280;65705;51.032;13.790;2023-04-03T13:26:29;101631.34;;;6.72;39.56
76762;BME280;65705;51.032;13.790;2023-04-03T13:29:02;101647.47;;;6.64;39.48
76762;BME280;65705;51.032;13.790;2023-04-03T13:31:31;101638.16;;;6.60;41.05
76762;BME280;65705;51.032;13.790;2023-04-03T13:36:32;101636.81;;;6.12;42.71
76762;BME280;65705;51.032;13.790;2023-04-03T13:41:49;101629.34;;;6.06;43.71
76762;BME280;65705;51.032;13.790;2023-04-03T13:46:49;101633.25;;;5.85;43.64
76762;BME280;65705;51.032;13.790;2023-04-03T13:49:19;101625.81;;;6.07;43.16
76762;BME280;65705;51.032;13.790;2023-04-03T13:51:45;101638.22;;;6.04;43.00
76762;BME280;65705;51.032;13.790;2023-04-03T13:54:30;101635.56;;;5.90;42.94
76762;BME280;65705;51.032;13.790;2023-04-03T13:56:58;101630.16;;;5.79;42.95
76762;BME280;65705;51.032;13.790;2023-04-03T13:59:31;101626.88;;;5.75;42.86
76762;BME280;65705;51.032;13.790;2023-04-03T14:06:55;101613.50;;;5.95;40.79
76762;BME280;65705;51.032;13.790;2023-04-03T14:09:23;101602.25;;;6.23;39.61
76762;BME280;65705;51.032;13.790;2023-04-03T14:11:52;101596.09;;;6.24;38.34
76762;BME280;65705;51.032;13.790;2023-04-03T14:14:28;101598.28;;;5.89;41.23
76762;BME280;65705;51.032;13.790;2023-04-03T14:16:58;101630.53;;;5.87;42.28
76762;BME280;65705;51.032;13.790;2023-04-03T14:19:28;101600.00;;;5.75;42.80
76762;BME280;65705;51.032;13.790;2023-04-03T14:21:56;101637.34;;;5.60;43.08
76762;BME280;65705;51.032;13.790;2023-04-03T14:24:23;101613.44;;;5.53;43.77
76762;BME280;65705;51.032;13.790;2023-04-03T14:26:51;101612.06;;;5.62;43.17
76762;BME280;65705;51.032;13.790;2023-04-03T14:29:17;101624.53;;;5.57;42.92
76762;BME280;65705;51.032;13.790;2023-04-03T14:31:45;101628.66;;;5.45;42.84
76762;BME280;65705;51.032;13.790;2023-04-03T14:34:12;101615.69;;;5.59;42.55
76762;BME280;65705;51.032;13.790;2023-04-03T14:36:39;101619.34;;;5.71;42.81
76762;BME280;65705;51.032;13.790;2023-04-03T14:39:08;101623.69;;;5.70;42.38
76762;BME280;65705;51.032;13.790;2023-04-03T14:41:34;101614.00;;;5.58;42.67
76762;BME280;65705;51.032;13.790;2023-04-03T14:44:00;101606.06;;;5.75;42.63